createdAt,value
2023-04-03T00:01:10.542Z,100056.84
2023-04-03T00:03:38.394Z,100052.53
2023-04-03T00:06:07.851Z,100052.38
2023-04-03T00:08:35.411Z,100059.03
2023-04-03T00:11:03.324Z,100045.97
2023-04-03T00:13:30.647Z,100055.34
2023-04-03T00:15:57.834Z,100047.09
2023-04-03T00:18:25.627Z,100056.81
2023-04-03T00:20:52.746Z,100056.72
2023-04-03T00:23:19.999Z,100057.34
2023-04-03T00:25:47.459Z,100070.16
2023-04-03T00:28:14.593Z,100062.75
2023-04-03T00:30:42.058Z,100076.03
2023-04-03T00:33:13.485Z,100070.41
2023-04-03T00:35:41.574Z,100072.19
2023-04-03T00:38:09.318Z,100067.06
2023-04-03T00:40:39.675Z,100075.03
2023-04-03T00:43:13.856Z,100081.94
2023-04-03T00:45:47.729Z,100075.84
2023-04-03T00:48:34.594Z,100084.09
2023-04-03T00:51:05.414Z,100076.69
2023-04-03T00:53:40.265Z,100080.44
2023-04-03T00:56:10.504Z,100077.81
2023-04-03T00:58:52.249Z,100081.09
2023-04-03T01:01:23.252Z,100070.63
2023-04-03T01:03:51.212Z,100074.34
2023-04-03T01:06:26.280Z,100078.13
2023-04-03T01:08:54.488Z,100079.97
2023-04-03T01:11:22.438Z,100067.94
2023-04-03T01:13:50.519Z,100067.84
2023-04-03T01:16:18.427Z,100075.78
2023-04-03T01:18:46.912Z,100082.69
2023-04-03T01:21:52.466Z,100079.97
2023-04-03T01:24:30.503Z,100077.84
2023-04-03T01:26:57.973Z,100073.28
2023-04-03T01:29:25.777Z,100070.09
2023-04-03T01:31:58.742Z,100072.06
2023-04-03T01:34:27.015Z,100077.41
2023-04-03T01:36:54.825Z,100083.56
2023-04-03T01:39:22.748Z,100080.75
2023-04-03T01:41:51.163Z,100075.72
2023-04-03T01:44:18.745Z,100073.28
2023-04-03T01:46:45.980Z,100078.34
2023-04-03T01:49:13.369Z,100068.59
2023-04-03T01:51:40.585Z,100072.34
2023-04-03T01:54:07.802Z,100090.19
2023-04-03T01:56:35.276Z,100083.00
2023-04-03T01:59:02.486Z,100092.66
2023-04-03T02:01:29.975Z,100086.75
2023-04-03T02:03:57.439Z,100091.34
2023-04-03T02:06:24.765Z,100099.84
2023-04-03T02:08:51.922Z,100088.41
2023-04-03T02:11:19.331Z,100090.31
2023-04-03T02:13:46.490Z,100097.78
2023-04-03T02:16:14.614Z,100102.81
2023-04-03T02:18:42.456Z,100093.84
2023-04-03T02:21:09.666Z,100097.41
2023-04-03T02:23:38.101Z,100098.25
2023-04-03T02:26:08.772Z,100102.09
2023-04-03T02:28:36.550Z,100100.00
2023-04-03T02:31:04.567Z,100094.41
2023-04-03T02:33:32.301Z,100103.19
2023-04-03T02:36:00.404Z,100096.50
2023-04-03T02:38:27.979Z,100107.41
2023-04-03T02:41:01.990Z,100102.53
2023-04-03T02:43:29.551Z,100101.53
2023-04-03T02:45:57.251Z,100094.97
2023-04-03T02:48:24.873Z,100104.31
2023-04-03T02:50:52.275Z,100103.00
2023-04-03T02:53:20.425Z,100103.00
2023-04-03T02:55:49.062Z,100097.78
2023-04-03T02:58:16.328Z,100107.03
2023-04-03T03:00:46.315Z,100098.97
2023-04-03T03:03:15.191Z,100097.56
2023-04-03T03:05:42.475Z,100099.59
2023-04-03T03:08:10.040Z,100109.16
2023-04-03T03:10:37.777Z,100119.41
2023-04-03T03:13:05.571Z,100109.88
2023-04-03T03:15:33.096Z,100111.91
2023-04-03T03:18:01.659Z,100123.13
2023-04-03T03:20:29.074Z,100105.75
2023-04-03T03:22:56.565Z,100114.53
2023-04-03T03:25:23.914Z,100126.19
2023-04-03T03:27:51.187Z,100115.47
2023-04-03T03:30:18.761Z,100112.09
2023-04-03T03:32:46.528Z,100115.16
2023-04-03T03:35:13.859Z,100117.50
2023-04-03T03:37:41.431Z,100119.28
2023-04-03T03:40:09.706Z,100117.66
2023-04-03T03:42:38.130Z,100114.22
2023-04-03T03:45:06.704Z,100114.66
2023-04-03T03:47:34.330Z,100113.91
2023-04-03T03:50:02.139Z,100115.50
2023-04-03T03:52:31.317Z,100123.44
2023-04-03T03:54:58.633Z,100121.69
2023-04-03T03:57:28.005Z,100117.03
2023-04-03T03:59:56.020Z,100106.09
2023-04-03T04:02:24.277Z,100109.81
2023-04-03T04:04:53.521Z,100103.25
2023-04-03T04:07:21.099Z,100111.19
2023-04-03T04:09:48.484Z,100114.84
2023-04-03T04:12:16.973Z,100115.66
2023-04-03T04:14:47.619Z,100105.81
2023-04-03T04:17:16.259Z,100104.44
2023-04-03T04:19:43.775Z,100117.50
2023-04-03T04:22:11.141Z,100110.50
2023-04-03T04:24:39.685Z,100119.22
2023-04-03T04:27:08.605Z,100109.50
2023-04-03T04:29:38.275Z,100116.41
2023-04-03T04:32:06.681Z,100109.84
2023-04-03T04:34:34.875Z,100111.53
2023-04-03T04:37:02.613Z,100103.09
2023-04-03T04:39:30.567Z,100117.09
2023-04-03T04:41:58.268Z,100114.59
2023-04-03T04:44:26.390Z,100126.22
2023-04-03T04:46:54.096Z,100126.88
2023-04-03T04:49:22.117Z,100113.75
2023-04-03T04:51:52.324Z,100120.47
2023-04-03T04:54:20.532Z,100126.97
2023-04-03T04:56:49.153Z,100128.56
2023-04-03T04:59:16.500Z,100132.75
2023-04-03T05:01:43.984Z,100129.06
2023-04-03T05:04:13.939Z,100135.37
2023-04-03T05:06:41.468Z,100116.34
2023-04-03T05:09:10.949Z,100126.56
2023-04-03T05:11:38.958Z,100129.91
2023-04-03T05:14:09.215Z,100134.63
2023-04-03T05:16:37.336Z,100145.59
2023-04-03T05:19:05.498Z,100131.75
2023-04-03T05:21:33.614Z,100131.75
2023-04-03T05:24:03.986Z,100143.22
2023-04-03T05:26:32.982Z,100154.91
2023-04-03T05:29:01.436Z,100154.31
2023-04-03T05:31:30.778Z,100153.13
2023-04-03T05:33:59.408Z,100158.22
2023-04-03T05:36:27.357Z,100169.16
2023-04-03T05:38:57.381Z,100153.53
2023-04-03T05:41:26.151Z,100150.53
2023-04-03T05:43:53.595Z,100163.97
2023-04-03T05:46:22.216Z,100164.56
2023-04-03T05:48:51.991Z,100162.53
2023-04-03T05:51:24.968Z,100171.16
2023-04-03T05:54:26.064Z,100168.03
2023-04-03T05:56:55.774Z,100171.97
2023-04-03T05:59:23.692Z,100171.97
2023-04-03T06:01:51.925Z,100169.78
2023-04-03T06:04:20.989Z,100173.41
2023-04-03T06:06:56.268Z,100172.69
2023-04-03T06:09:26.693Z,100179.31
2023-04-03T06:11:54.849Z,100179.63
2023-04-03T06:14:22.802Z,100173.19
2023-04-03T06:16:50.633Z,100167.31
2023-04-03T06:19:17.987Z,100173.16
2023-04-03T06:21:45.687Z,100167.88
2023-04-03T06:24:16.282Z,100187.06
2023-04-03T06:26:44.043Z,100186.31
2023-04-03T06:29:11.430Z,100194.31
2023-04-03T06:31:39.188Z,100189.63
2023-04-03T06:34:09.531Z,100193.63
2023-04-03T06:36:37.224Z,100201.91
2023-04-03T06:39:04.925Z,100182.38
2023-04-03T06:41:32.419Z,100198.38
2023-04-03T06:44:00.058Z,100203.63
2023-04-03T06:46:28.101Z,100209.56
2023-04-03T06:48:56.092Z,100226.03
2023-04-03T06:51:28.939Z,100217.28
2023-04-03T06:53:58.551Z,100220.22
2023-04-03T06:56:27.397Z,100219.00
2023-04-03T06:58:55.893Z,100214.47
2023-04-03T07:01:23.780Z,100216.72
2023-04-03T07:03:51.322Z,100223.84
2023-04-03T07:06:19.314Z,100218.81
2023-04-03T07:08:50.235Z,100220.88
2023-04-03T07:11:17.690Z,100226.25
2023-04-03T07:13:45.165Z,100229.03
2023-04-03T07:16:12.948Z,100232.00
2023-04-03T07:18:40.466Z,100216.66
2023-04-03T07:21:07.715Z,100230.19
2023-04-03T07:23:35.303Z,100220.37
2023-04-03T07:26:03.149Z,100218.97
2023-04-03T07:28:31.359Z,100221.09
2023-04-03T07:31:09.470Z,100234.06
2023-04-03T07:33:38.273Z,100227.50
2023-04-03T07:36:08.034Z,100219.25
2023-04-03T07:38:36.734Z,100229.78
2023-04-03T07:41:04.832Z,100244.56
2023-04-03T07:43:32.619Z,100232.91
2023-04-03T07:45:59.995Z,100228.31
2023-04-03T07:48:27.836Z,100230.34
2023-04-03T07:50:56.711Z,100235.62
2023-04-03T07:53:23.917Z,100239.09
2023-04-03T07:55:56.480Z,100235.16
2023-04-03T07:58:26.820Z,100240.22
2023-04-03T08:00:54.141Z,100238.94
2023-04-03T08:03:22.220Z,100235.34
2023-04-03T08:05:50.390Z,100241.34
2023-04-03T08:08:21.446Z,100243.31
2023-04-03T08:10:51.399Z,100254.31
2023-04-03T08:13:19.082Z,100250.97
2023-04-03T08:15:46.394Z,100251.03
2023-04-03T08:18:15.947Z,100256.88
2023-04-03T08:20:46.054Z,100257.50
2023-04-03T08:23:13.989Z,100260.38
2023-04-03T08:25:42.688Z,100266.94
2023-04-03T08:28:12.325Z,100256.22
2023-04-03T08:30:42.069Z,100264.16
2023-04-03T08:33:09.968Z,100265.28
2023-04-03T08:35:42.528Z,100267.50
2023-04-03T08:38:11.189Z,100271.75
2023-04-03T08:40:42.406Z,100270.34
2023-04-03T08:43:32.224Z,100273.97
2023-04-03T08:46:01.021Z,100272.91
2023-04-03T08:48:32.733Z,100268.94
2023-04-03T08:51:03.621Z,100265.53
2023-04-03T08:53:34.768Z,100271.03
2023-04-03T08:56:09.382Z,100273.22
2023-04-03T08:58:42.994Z,100272.94
2023-04-03T09:01:19.572Z,100273.59
2023-04-03T09:03:47.227Z,100282.88
2023-04-03T09:06:21.703Z,100284.69
2023-04-03T09:08:58.259Z,100279.44
2023-04-03T09:11:54.635Z,100285.06
2023-04-03T09:14:29.499Z,100279.38
2023-04-03T09:16:59.094Z,100274.06
2023-04-03T09:19:33.860Z,100269.97
2023-04-03T09:22:15.469Z,100287.47
2023-04-03T09:24:45.683Z,100270.94
2023-04-03T09:27:13.275Z,100281.13
2023-04-03T09:29:44.647Z,100275.81
2023-04-03T09:32:27.581Z,100281.69
2023-04-03T09:34:58.156Z,100282.78
2023-04-03T09:37:45.470Z,100280.16
2023-04-03T09:40:29.112Z,100279.75
2023-04-03T09:43:01.558Z,100281.00
2023-04-03T09:45:34.799Z,100282.53
2023-04-03T09:48:17.145Z,100286.12
2023-04-03T09:50:59.512Z,100278.19
2023-04-03T09:53:46.298Z,100281.63
2023-04-03T09:56:17.580Z,100279.59
2023-04-03T09:59:05.405Z,100277.31
2023-04-03T10:01:39.557Z,100275.75
2023-04-03T10:04:15.886Z,100269.53
2023-04-03T10:06:47.973Z,100270.53
2023-04-03T10:12:46.994Z,100272.34
2023-04-03T10:15:21.962Z,100269.53
2023-04-03T10:18:08.769Z,100271.91
2023-04-03T10:20:48.463Z,100263.53
2023-04-03T10:23:38.066Z,100265.53
2023-04-03T10:26:24.662Z,100276.56
2023-04-03T10:29:22.971Z,100268.84
2023-04-03T10:32:11.176Z,100269.38
2023-04-03T10:34:42.347Z,100270.38
2023-04-03T10:37:25.994Z,100266.88
2023-04-03T10:39:59.445Z,100271.34
2023-04-03T10:42:33.202Z,100272.59
2023-04-03T10:45:42.153Z,100259.09
2023-04-03T10:48:38.818Z,100260.47
2023-04-03T10:51:33.551Z,100259.16
2023-04-03T10:54:22.233Z,100254.84
2023-04-03T10:57:04.587Z,100261.34
2023-04-03T10:59:48.440Z,100247.41
2023-04-03T11:02:40.986Z,100247.88
2023-04-03T11:05:35.225Z,100250.97
2023-04-03T11:08:32.359Z,100254.81
2023-04-03T11:11:04.480Z,100252.94
2023-04-03T11:13:37.366Z,100250.75
2023-04-03T11:16:06.693Z,100247.59
2023-04-03T11:18:40.075Z,100246.63
2023-04-03T11:21:14.981Z,100247.69
2023-04-03T11:23:49.383Z,100239.28
2023-04-03T11:26:22.016Z,100234.88
2023-04-03T11:29:03.331Z,100231.31
2023-04-03T11:32:03.537Z,100227.66
2023-04-03T11:34:48.961Z,100222.81
2023-04-03T11:37:39.595Z,100217.84
2023-04-03T11:40:26.706Z,100231.84
2023-04-03T11:43:04.390Z,100222.75
2023-04-03T11:45:47.475Z,100228.97
2023-04-03T11:48:32.611Z,100217.22
2023-04-03T11:51:00.826Z,100223.81
2023-04-03T11:53:28.923Z,100237.13
2023-04-03T11:56:01.894Z,100231.84
2023-04-03T11:58:31.176Z,100218.66
2023-04-03T12:01:01.498Z,100215.28
2023-04-03T12:03:34.988Z,100226.81
2023-04-03T12:06:05.719Z,100218.19
2023-04-03T12:08:33.942Z,100220.22
2023-04-03T12:11:10.777Z,100222.84
2023-04-03T12:13:53.632Z,100218.53
2023-04-03T12:16:22.960Z,100207.00
2023-04-03T12:18:50.678Z,100203.31
2023-04-03T12:21:25.776Z,100204.62
2023-04-03T12:23:59.365Z,100200.50
2023-04-03T12:26:49.126Z,100203.66
2023-04-03T12:29:29.865Z,100214.41
2023-04-03T12:32:01.207Z,100210.53
2023-04-03T12:34:51.810Z,100197.78
2023-04-03T12:37:59.497Z,100199.03
2023-04-03T12:40:27.154Z,100199.50
2023-04-03T12:43:11.663Z,100196.84
2023-04-03T12:45:46.051Z,100198.28
2023-04-03T12:48:19.206Z,100204.88
2023-04-03T12:50:48.193Z,100201.25
2023-04-03T12:53:21.290Z,100197.09
2023-04-03T12:55:49.088Z,100196.09
2023-04-03T12:58:25.125Z,100190.34
2023-04-03T13:01:12.994Z,100191.28
2023-04-03T13:03:42.398Z,100197.97
2023-04-03T13:06:23.116Z,100186.31
2023-04-03T13:08:59.313Z,100188.38
2023-04-03T13:11:32.399Z,100189.44
2023-04-03T13:17:04.226Z,100176.47
2023-04-03T13:19:33.095Z,100168.00
2023-04-03T13:22:26.867Z,100176.19
2023-04-03T13:24:56.194Z,100179.75
2023-04-03T13:27:23.797Z,100172.50
2023-04-03T13:29:54.045Z,100167.34
2023-04-03T13:32:24.651Z,100172.34
2023-04-03T13:34:52.215Z,100178.09
2023-04-03T13:37:25.629Z,100166.09
2023-04-03T13:39:59.708Z,100171.47
2023-04-03T13:42:30.824Z,100165.91
2023-04-03T13:45:27.333Z,100171.69
2023-04-03T13:48:23.233Z,100169.09
2023-04-03T13:50:59.188Z,100168.03
2023-04-03T13:53:27.997Z,100158.44
2023-04-03T13:56:22.038Z,100154.84
2023-04-03T13:59:07.949Z,100161.34
2023-04-03T14:01:42.422Z,100147.41
2023-04-03T14:04:31.481Z,100154.75
2023-04-03T14:10:31.528Z,100145.31
2023-04-03T14:12:59.244Z,100149.31
2023-04-03T14:15:29.377Z,100150.31
2023-04-03T14:17:56.755Z,100147.50
2023-04-03T14:20:27.727Z,100144.31
2023-04-03T14:22:55.384Z,100145.47
2023-04-03T14:25:25.071Z,100142.47
2023-04-03T14:27:54.757Z,100147.56
2023-04-03T14:30:28.581Z,100143.13
2023-04-03T14:32:56.834Z,100139.25
2023-04-03T14:35:24.873Z,100140.81
2023-04-03T14:37:53.489Z,100137.88
2023-04-03T14:40:26.524Z,100143.47
2023-04-03T14:42:56.466Z,100145.03
2023-04-03T14:45:24.882Z,100152.50
2023-04-03T14:47:54.609Z,100159.00
2023-04-03T14:50:25.927Z,100146.19
2023-04-03T14:52:57.594Z,100158.53
2023-04-03T14:55:25.677Z,100149.91
2023-04-03T14:57:54.251Z,100155.75
2023-04-03T15:00:23.645Z,100147.97
2023-04-03T15:02:51.752Z,100152.37
2023-04-03T15:05:20.649Z,100153.94
2023-04-03T15:07:51.705Z,100155.63
2023-04-03T15:10:20.104Z,100154.03
2023-04-03T15:12:49.642Z,100155.00
2023-04-03T15:15:18.720Z,100167.53
2023-04-03T15:17:46.624Z,100162.59
2023-04-03T15:20:19.969Z,100153.03
2023-04-03T15:22:47.627Z,100164.25
2023-04-03T15:25:15.501Z,100160.00
2023-04-03T15:27:42.922Z,100160.66
2023-04-03T15:30:15.796Z,100153.41
2023-04-03T15:32:43.647Z,100155.16
2023-04-03T15:35:12.003Z,100152.75
2023-04-03T15:37:39.365Z,100159.94
2023-04-03T15:40:07.746Z,100150.25
2023-04-03T15:42:35.180Z,100146.47
2023-04-03T15:45:02.805Z,100150.19
2023-04-03T15:47:30.430Z,100146.72
2023-04-03T15:49:57.730Z,100145.91
2023-04-03T15:52:25.424Z,100155.13
2023-04-03T15:54:53.133Z,100145.66
2023-04-03T15:57:20.924Z,100148.00
2023-04-03T15:59:48.134Z,100145.50
2023-04-03T16:02:15.907Z,100152.25
2023-04-03T16:04:43.586Z,100159.03
2023-04-03T16:07:10.853Z,100158.44
2023-04-03T16:09:38.114Z,100152.66
2023-04-03T16:12:05.593Z,100155.28
2023-04-03T16:14:32.776Z,100158.34
2023-04-03T16:17:01.065Z,100154.88
2023-04-03T16:23:00.495Z,100153.44
2023-04-03T16:25:28.593Z,100153.88
2023-04-03T16:27:55.966Z,100145.06
2023-04-03T16:30:23.380Z,100160.19
2023-04-03T16:32:51.311Z,100157.44
2023-04-03T16:38:49.902Z,100161.44
2023-04-03T16:41:17.604Z,100167.34
2023-04-03T16:43:45.087Z,100169.22
2023-04-03T16:46:12.539Z,100171.84
2023-04-03T16:48:40.536Z,100162.31
2023-04-03T16:51:08.008Z,100167.78
2023-04-03T16:53:35.632Z,100166.06
2023-04-03T16:56:03.293Z,100167.44
2023-04-03T16:58:30.646Z,100169.13
2023-04-03T17:00:58.127Z,100176.09
2023-04-03T17:03:29.012Z,100177.22
2023-04-03T17:05:56.471Z,100180.91
2023-04-03T17:08:24.280Z,100181.00
2023-04-03T17:10:54.908Z,100202.94
2023-04-03T17:13:22.478Z,100214.41
2023-04-03T17:15:50.131Z,100214.59
2023-04-03T17:18:18.119Z,100209.16
2023-04-03T17:20:45.492Z,100209.25
2023-04-03T17:23:12.917Z,100217.75
2023-04-03T17:25:41.380Z,100219.66
2023-04-03T17:28:09.543Z,100221.44
2023-04-03T17:30:37.342Z,100241.09
2023-04-03T17:33:05.235Z,100237.09
2023-04-03T17:35:33.377Z,100258.94
2023-04-03T17:38:02.513Z,100264.44
2023-04-03T17:40:30.673Z,100270.50
2023-04-03T17:42:58.605Z,100271.53
2023-04-03T17:45:26.800Z,100279.09
2023-04-03T17:47:55.180Z,100287.59
2023-04-03T17:50:23.037Z,100284.31
2023-04-03T17:52:51.146Z,100297.56
2023-04-03T17:55:19.608Z,100293.44
2023-04-03T17:57:47.358Z,100309.62
2023-04-03T18:00:19.204Z,100329.59
2023-04-03T18:02:54.121Z,100335.44
2023-04-03T18:05:22.715Z,100333.75
2023-04-03T18:07:51.774Z,100346.88
2023-04-03T18:10:22.125Z,100348.22
2023-04-03T18:12:54.942Z,100354.81
2023-04-03T18:15:25.854Z,100362.13
2023-04-03T18:17:58.217Z,100363.81
2023-04-03T18:20:28.911Z,100365.31
2023-04-03T18:22:56.992Z,100370.75
2023-04-03T18:25:25.330Z,100381.62
2023-04-03T18:27:56.256Z,100388.44
2023-04-03T18:30:30.057Z,100390.50
2023-04-03T18:33:03.430Z,100386.13
2023-04-03T18:35:34.317Z,100386.41
2023-04-03T18:38:03.291Z,100389.06
2023-04-03T18:40:36.466Z,100394.97
2023-04-03T18:43:13.456Z,100397.78
2023-04-03T18:45:44.539Z,100397.41
2023-04-03T18:48:17.530Z,100402.38
2023-04-03T18:50:49.701Z,100403.88
2023-04-03T18:53:21.336Z,100396.09
2023-04-03T18:55:49.969Z,100396.47
2023-04-03T18:58:18.758Z,100389.81
2023-04-03T19:00:49.795Z,100389.25
2023-04-03T19:03:18.450Z,100398.84
2023-04-03T19:05:47.878Z,100404.88
2023-04-03T19:08:17.862Z,100405.75
2023-04-03T19:10:53.497Z,100405.56
2023-04-03T19:13:30.745Z,100414.34
2023-04-03T19:16:01.919Z,100410.31
2023-04-03T19:18:31.335Z,100405.16
2023-04-03T19:21:02.870Z,100405.12
2023-04-03T19:23:34.840Z,100404.56
2023-04-03T19:26:08.880Z,100421.28
2023-04-03T19:28:38.789Z,100410.88
2023-04-03T19:31:18.488Z,100415.19
2023-04-03T19:33:48.508Z,100414.22
2023-04-03T19:36:18.298Z,100411.00
2023-04-03T19:38:49.621Z,100425.22
2023-04-03T19:41:23.708Z,100430.44
2023-04-03T19:43:53.633Z,100425.47
2023-04-03T19:46:29.834Z,100410.59
2023-04-03T19:48:58.501Z,100428.53
2023-04-03T19:51:31.229Z,100431.53
2023-04-03T19:53:59.651Z,100436.47
2023-04-03T19:56:27.991Z,100421.19
2023-04-03T19:59:01.433Z,100406.47
2023-04-03T20:01:32.334Z,100397.09
2023-04-03T20:04:01.111Z,100401.69
2023-04-03T20:06:29.818Z,100407.66
2023-04-03T20:08:58.625Z,100409.63
2023-04-03T20:11:27.808Z,100411.72
2023-04-03T20:13:58.025Z,100406.56
2023-04-03T20:16:26.312Z,100411.72
2023-04-03T20:18:57.682Z,100413.66
2023-04-03T20:21:30.005Z,100414.59
2023-04-03T20:24:00.050Z,100413.47
2023-04-03T20:26:30.261Z,100407.50
2023-04-03T20:29:00.287Z,100411.09
2023-04-03T20:31:28.754Z,100416.37
2023-04-03T20:33:57.002Z,100411.97
2023-04-03T20:36:26.842Z,100411.62
2023-04-03T20:38:54.568Z,100420.84
2023-04-03T20:41:22.697Z,100410.28
2023-04-03T20:43:51.001Z,100415.66
2023-04-03T20:46:20.374Z,100422.88
2023-04-03T20:48:48.243Z,100413.75
2023-04-03T20:51:21.286Z,100437.41
2023-04-03T20:53:48.978Z,100416.91
2023-04-03T20:56:16.930Z,100432.75
2023-04-03T20:58:46.312Z,100416.84
2023-04-03T21:01:16.562Z,100416.28
2023-04-03T21:03:46.239Z,100414.06
2023-04-03T21:06:51.419Z,100413.00
2023-04-03T21:09:57.325Z,100416.75
2023-04-03T21:13:03.193Z,100414.47
2023-04-03T21:15:55.405Z,100406.84
2023-04-03T21:18:37.243Z,100413.84
2023-04-03T21:21:05.024Z,100418.44
2023-04-03T21:23:32.920Z,100414.16
2023-04-03T21:26:01.234Z,100407.88
2023-04-03T21:28:29.037Z,100406.19
2023-04-03T21:30:56.385Z,100406.47
2023-04-03T21:33:23.674Z,100415.91
2023-04-03T21:35:57.730Z,100414.59
2023-04-03T21:38:27.595Z,100425.59
2023-04-03T21:40:58.362Z,100405.88
2023-04-03T21:43:25.603Z,100398.94
2023-04-03T21:45:56.660Z,100398.94
2023-04-03T21:48:24.810Z,100403.63
2023-04-03T21:50:55.156Z,100394.84
2023-04-03T21:53:22.685Z,100393.56
2023-04-03T21:55:54.501Z,100393.94
2023-04-03T21:58:22.080Z,100402.00
2023-04-03T22:00:49.566Z,100404.47
2023-04-03T22:03:21.362Z,100392.84
2023-04-03T22:05:48.676Z,100393.78
2023-04-03T22:08:18.057Z,100389.72
2023-04-03T22:10:46.037Z,100386.56
2023-04-03T22:13:13.319Z,100374.03
2023-04-03T22:15:43.735Z,100381.12
2023-04-03T22:18:11.420Z,100385.13
2023-04-03T22:20:39.601Z,100383.91
2023-04-03T22:23:07.324Z,100376.19
2023-04-03T22:25:34.830Z,100383.81
2023-04-03T22:28:02.167Z,100387.41
2023-04-03T22:30:29.619Z,100382.50
2023-04-03T22:32:57.140Z,100384.88
2023-04-03T22:35:24.639Z,100385.78
2023-04-03T22:37:51.880Z,100379.75
2023-04-03T22:40:19.555Z,100381.19
2023-04-03T22:42:48.298Z,100394.09
2023-04-03T22:45:16.505Z,100400.84
2023-04-03T22:47:44.207Z,100397.59
2023-04-03T22:50:11.432Z,100410.03
2023-04-03T22:52:38.648Z,100400.75
2023-04-03T22:55:18.661Z,100404.44
2023-04-03T22:57:47.776Z,100397.06
2023-04-03T23:00:16.615Z,100405.28
2023-04-03T23:02:43.927Z,100399.81
2023-04-03T23:05:11.185Z,100397.22
2023-04-03T23:07:41.658Z,100401.22
2023-04-03T23:10:09.484Z,100393.22
2023-04-03T23:12:40.572Z,100397.81
2023-04-03T23:15:08.693Z,100398.12
2023-04-03T23:17:39.515Z,100391.38
2023-04-03T23:20:07.074Z,100403.31
2023-04-03T23:22:34.890Z,100400.53
2023-04-03T23:25:02.771Z,100385.25
2023-04-03T23:27:29.953Z,100390.69
2023-04-03T23:29:57.702Z,100382.09
2023-04-03T23:32:25.098Z,100389.84
2023-04-03T23:34:52.309Z,100379.72
2023-04-03T23:37:20.029Z,100391.19
2023-04-03T23:39:47.251Z,100385.22
2023-04-03T23:42:14.521Z,100384.66
2023-04-03T23:44:42.022Z,100392.53
2023-04-03T23:47:09.193Z,100386.03
2023-04-03T23:49:36.432Z,100381.25
2023-04-03T23:52:03.933Z,100384.06
2023-04-03T23:54:31.578Z,100393.72
2023-04-03T23:57:00.972Z,100393.19
2023-04-03T23:59:30.834Z,100394.19
